Time;durP1;ratioP1;P1;durP2;ratioP2;P2;SDS_P1;SDS_P2;PMS_P1;PMS_P2;Temp;Humidity;BMP_temperature;BMP_pressure;BME280_temperature;BME280_humidity;BME280_pressure;Samples;Min_cycle;Max_cycle;Signal;HPM_P1;HPM_P2
2022/03/18 00:00:48;;;;;;;90.93;23.43;;;;;;;;;;5093616;28;20864;-72
2022/03/18 00:03:16;;;;;;;84.43;21.73;;;;;;;;;;5093434;28;20529;-69
2022/03/18 00:05:43;;;;;;;81.90;18.60;;;;;;;;;;5093385;28;20558;-69
2022/03/18 00:08:11;;;;;;;86.40;20.77;;;;;;;;;;5092535;28;21039;-69
2022/03/18 00:10:38;;;;;;;85.50;20.63;;;;;;;;;;5093173;28;20449;-70
2022/03/18 00:13:05;;;;;;;81.60;18.13;;;;;;;;;;5093384;28;20481;-69
2022/03/18 00:15:33;;;;;;;86.07;18.87;;;;;;;;;;5093207;28;20540;-69
2022/03/18 00:18:00;;;;;;;82.10;19.87;;;;;;;;;;5092459;28;20536;-69
2022/03/18 00:20:28;;;;;;;79.87;18.77;;;;;;;;;;5093521;28;20456;-69
2022/03/18 00:22:56;;;;;;;81.43;18.02;;;;;;;;;;5093291;28;20441;-69
2022/03/18 00:25:23;;;;;;;80.40;17.90;;;;;;;;;;5092963;28;20693;-69
2022/03/18 00:27:50;;;;;;;81.43;17.13;;;;;;;;;;5092411;28;20870;-68
2022/03/18 00:30:18;;;;;;;78.60;17.07;;;;;;;;;;5092910;28;20551;-69
2022/03/18 00:32:46;;;;;;;78.37;17.43;;;;;;;;;;5092802;28;20487;-69
2022/03/18 00:35:13;;;;;;;79.37;17.63;;;;;;;;;;5092728;28;20445;-69
2022/03/18 00:37:42;;;;;;;82.23;19.33;;;;;;;;;;5092146;28;20563;-68
2022/03/18 00:40:11;;;;;;;82.13;17.70;;;;;;;;;;5092875;28;20474;-69
2022/03/18 00:42:38;;;;;;;82.73;18.87;;;;;;;;;;5091926;28;20965;-69
2022/03/18 00:45:06;;;;;;;83.00;17.80;;;;;;;;;;5092691;28;20468;-72
2022/03/18 00:53:04;;;;;;;78.80;16.00;;;;;;;;;;5092469;28;20488;-69
2022/03/18 00:55:31;;;;;;;80.50;16.33;;;;;;;;;;5092426;28;20495;-69
2022/03/18 00:57:58;;;;;;;79.60;17.60;;;;;;;;;;5091726;28;20455;-69
2022/03/18 01:00:25;;;;;;;76.63;16.80;;;;;;;;;;5092607;28;20459;-68
2022/03/18 01:02:52;;;;;;;84.10;18.80;;;;;;;;;;5092305;28;20537;-68
2022/03/18 01:05:19;;;;;;;79.90;17.27;;;;;;;;;;5092411;28;20527;-71
2022/03/18 01:07:47;;;;;;;81.33;19.03;;;;;;;;;;5091568;28;20475;-68
2022/03/18 01:10:15;;;;;;;79.97;18.10;;;;;;;;;;5092298;28;20451;-70
2022/03/18 01:12:42;;;;;;;77.70;16.07;;;;;;;;;;5091972;28;20572;-69
2022/03/18 01:15:10;;;;;;;77.73;16.50;;;;;;;;;;5092135;28;20540;-68
2022/03/18 01:17:37;;;;;;;77.90;16.57;;;;;;;;;;5091341;28;21020;-68
2022/03/18 01:20:04;;;;;;;78.63;16.97;;;;;;;;;;5092398;28;20584;-69
2022/03/18 01:22:32;;;;;;;79.80;16.83;;;;;;;;;;5091984;28;20494;-68
2022/03/18 01:24:59;;;;;;;78.67;16.27;;;;;;;;;;5091877;28;20528;-68
2022/03/18 01:27:28;;;;;;;80.57;17.37;;;;;;;;;;5091363;28;20600;-69
2022/03/18 01:29:55;;;;;;;80.43;17.87;;;;;;;;;;5092031;28;20464;-69
2022/03/18 01:32:22;;;;;;;80.37;16.80;;;;;;;;;;5091904;28;20480;-68
2022/03/18 01:34:49;;;;;;;80.10;17.23;;;;;;;;;;5091954;28;20816;-69
2022/03/18 01:37:16;;;;;;;80.77;17.07;;;;;;;;;;5091019;28;20556;-70
2022/03/18 01:39:44;;;;;;;81.03;18.30;;;;;;;;;;5091887;28;21009;-68
2022/03/18 01:42:11;;;;;;;80.13;18.13;;;;;;;;;;5091829;28;20930;-69
2022/03/18 01:44:43;;;;;;;77.43;17.30;;;;;;;;;;5091590;28;20487;-68
2022/03/18 01:47:10;;;;;;;76.10;15.70;;;;;;;;;;5091165;28;20467;-73
2022/03/18 01:49:37;;;;;;;77.83;17.20;;;;;;;;;;5091730;28;20540;-68
2022/03/18 01:52:06;;;;;;;79.30;17.67;;;;;;;;;;5091484;28;20489;-68
2022/03/18 01:54:47;;;;;;;77.33;17.10;;;;;;;;;;5093252;28;20451;-70
2022/03/18 01:57:15;;;;;;;76.30;16.60;;;;;;;;;;5095403;28;20845;-69
2022/03/18 01:59:43;;;;;;;79.03;17.10;;;;;;;;;;5095841;28;20531;-68
2022/03/18 02:02:11;;;;;;;77.00;16.47;;;;;;;;;;5095673;28;21004;-68
2022/03/18 02:04:38;;;;;;;80.07;17.57;;;;;;;;;;5096090;28;20449;-69
2022/03/18 02:07:06;;;;;;;76.83;16.13;;;;;;;;;;5095728;28;20885;-70
2022/03/18 02:09:33;;;;;;;76.30;15.83;;;;;;;;;;5095447;28;20495;-68
2022/03/18 02:12:02;;;;;;;75.27;15.30;;;;;;;;;;5095463;28;20452;-68
2022/03/18 02:14:33;;;;;;;80.00;16.57;;;;;;;;;;5095612;28;20445;-67
2022/03/18 02:17:02;;;;;;;80.77;16.60;;;;;;;;;;5095375;28;20464;-68
2022/03/18 02:19:29;;;;;;;77.53;16.33;;;;;;;;;;5094782;28;20546;-68
2022/03/18 02:21:57;;;;;;;81.27;14.80;;;;;;;;;;5095495;28;20533;-68
2022/03/18 02:24:26;;;;;;;80.30;16.03;;;;;;;;;;5095441;28;20445;-68
2022/03/18 02:26:54;;;;;;;78.27;16.10;;;;;;;;;;5095160;28;20995;-68
2022/03/18 02:29:23;;;;;;;79.80;16.90;;;;;;;;;;5094463;28;20555;-71
2022/03/18 02:31:50;;;;;;;78.70;16.63;;;;;;;;;;5091924;28;20530;-71
2022/03/18 02:34:17;;;;;;;77.97;15.40;;;;;;;;;;5095114;28;20572;-67
2022/03/18 02:36:44;;;;;;;82.30;18.57;;;;;;;;;;5095177;28;20462;-68
2022/03/18 02:39:11;;;;;;;81.90;18.90;;;;;;;;;;5094341;28;20454;-68
2022/03/18 02:41:40;;;;;;;79.00;16.30;;;;;;;;;;5094917;28;20538;-68
2022/03/18 02:44:07;;;;;;;82.07;18.20;;;;;;;;;;5095146;28;20448;-68
2022/03/18 02:46:34;;;;;;;79.07;16.83;;;;;;;;;;5094961;28;20472;-68
2022/03/18 02:49:02;;;;;;;78.90;16.23;;;;;;;;;;5094551;28;20528;-68
2022/03/18 02:51:29;;;;;;;79.20;16.40;;;;;;;;;;5094967;28;20818;-65
2022/03/18 02:53:57;;;;;;;80.10;17.03;;;;;;;;;;5094747;28;20502;-70
2022/03/18 02:56:24;;;;;;;77.53;17.17;;;;;;;;;;5094996;28;20553;-68
2022/03/18 02:58:53;;;;;;;79.30;17.73;;;;;;;;;;5094359;28;20480;-69
2022/03/18 03:01:20;;;;;;;78.90;16.90;;;;;;;;;;5094918;28;20449;-69
2022/03/18 03:03:47;;;;;;;76.30;16.03;;;;;;;;;;5094679;28;20831;-68
2022/03/18 03:08:59;;;;;;;78.63;15.40;;;;;;;;;;5093935;28;20449;-69
2022/03/18 03:11:26;;;;;;;77.80;16.83;;;;;;;;;;5094670;28;20448;-68
2022/03/18 03:13:55;;;;;;;75.60;15.40;;;;;;;;;;5094374;28;20850;-68
2022/03/18 03:16:22;;;;;;;80.27;16.53;;;;;;;;;;5094515;28;20470;-68
2022/03/18 03:18:49;;;;;;;76.90;15.60;;;;;;;;;;5093596;28;20449;-71
2022/03/18 03:21:17;;;;;;;78.07;16.50;;;;;;;;;;5094194;28;20456;-68
2022/03/18 03:23:44;;;;;;;79.27;16.50;;;;;;;;;;5094677;28;20447;-68
2022/03/18 03:26:12;;;;;;;82.27;16.57;;;;;;;;;;5094230;28;20469;-68
2022/03/18 03:28:39;;;;;;;79.17;16.60;;;;;;;;;;5093439;28;21013;-68
2022/03/18 03:31:08;;;;;;;77.83;16.43;;;;;;;;;;5094069;28;20456;-68
2022/03/18 03:33:35;;;;;;;80.23;16.57;;;;;;;;;;5093824;28;20988;-68
2022/03/18 03:36:02;;;;;;;79.17;16.53;;;;;;;;;;5093864;28;20478;-68
2022/03/18 03:38:29;;;;;;;76.80;16.00;;;;;;;;;;5093667;28;20604;-67
2022/03/18 03:40:56;;;;;;;79.27;17.50;;;;;;;;;;5094115;28;20526;-68
2022/03/18 03:43:23;;;;;;;79.73;17.80;;;;;;;;;;5093768;28;20461;-68
2022/03/18 03:45:51;;;;;;;80.30;18.57;;;;;;;;;;5093858;28;21031;-68
2022/03/18 03:48:19;;;;;;;79.23;16.47;;;;;;;;;;5092928;28;20448;-70
2022/03/18 03:50:46;;;;;;;79.07;16.27;;;;;;;;;;5093944;28;20475;-68
2022/03/18 03:53:14;;;;;;;80.70;17.23;;;;;;;;;;5093684;28;20582;-68
2022/03/18 03:55:41;;;;;;;79.13;16.47;;;;;;;;;;5093589;28;20471;-68
2022/03/18 03:58:08;;;;;;;79.07;16.00;;;;;;;;;;5092979;28;21044;-68
2022/03/18 04:00:37;;;;;;;80.90;16.00;;;;;;;;;;5093465;28;20959;-68
2022/03/18 04:03:04;;;;;;;77.07;15.60;;;;;;;;;;5093798;28;20864;-67
2022/03/18 04:05:33;;;;;;;84.20;18.37;;;;;;;;;;5093525;28;20447;-68
2022/03/18 04:08:00;;;;;;;79.70;16.57;;;;;;;;;;5092842;28;20448;-68
2022/03/18 04:10:28;;;;;;;82.10;16.93;;;;;;;;;;5093350;28;20449;-68
2022/03/18 04:12:55;;;;;;;80.00;15.20;;;;;;;;;;5093102;28;21003;-68
2022/03/18 04:15:23;;;;;;;83.15;17.38;;;;;;;;;;5093205;28;20884;-68
2022/03/18 04:17:51;;;;;;;79.73;16.40;;;;;;;;;;5092745;28;20210;-68
2022/03/18 04:20:19;;;;;;;80.50;15.97;;;;;;;;;;5093229;28;20487;-69
2022/03/18 04:22:47;;;;;;;78.10;15.00;;;;;;;;;;5093095;28;20448;-68
2022/03/18 04:25:14;;;;;;;82.67;17.77;;;;;;;;;;5093020;28;20453;-69
2022/03/18 04:27:42;;;;;;;79.63;17.57;;;;;;;;;;5092271;28;20470;-69
2022/03/18 04:30:10;;;;;;;82.27;16.17;;;;;;;;;;5093003;28;20459;-69
2022/03/18 04:32:37;;;;;;;79.70;16.90;;;;;;;;;;5092708;28;20453;-70
2022/03/18 04:35:05;;;;;;;79.90;16.17;;;;;;;;;;5093043;28;20455;-69
2022/03/18 04:37:32;;;;;;;77.03;16.63;;;;;;;;;;5092098;28;20543;-69
2022/03/18 04:40:00;;;;;;;83.07;17.50;;;;;;;;;;5092871;28;20502;-68
2022/03/18 04:42:27;;;;;;;76.40;15.27;;;;;;;;;;5092524;28;20539;-71
2022/03/18 04:44:54;;;;;;;77.27;15.90;;;;;;;;;;5092696;28;20451;-69
2022/03/18 04:47:21;;;;;;;83.83;15.93;;;;;;;;;;5092015;28;20633;-70
2022/03/18 04:49:49;;;;;;;78.10;16.00;;;;;;;;;;5092666;28;20831;-68
2022/03/18 04:52:16;;;;;;;80.80;17.10;;;;;;;;;;5092604;28;21000;-69
2022/03/18 04:54:43;;;;;;;78.40;15.80;;;;;;;;;;5092369;28;20566;-69
2022/03/18 04:57:18;;;;;;;79.80;16.27;;;;;;;;;;5091973;28;20562;-69
2022/03/18 04:59:46;;;;;;;75.20;16.07;;;;;;;;;;5092432;28;20451;-71
2022/03/18 05:02:14;;;;;;;82.20;16.43;;;;;;;;;;5092504;28;20444;-68
2022/03/18 05:04:42;;;;;;;79.23;16.63;;;;;;;;;;5092295;28;20466;-68
2022/03/18 05:07:11;;;;;;;81.60;15.67;;;;;;;;;;5091828;28;20471;-70
2022/03/18 05:09:39;;;;;;;86.87;18.20;;;;;;;;;;5091913;28;20461;-69
2022/03/18 05:12:07;;;;;;;86.90;17.10;;;;;;;;;;5092109;28;21013;-71
2022/03/18 05:14:35;;;;;;;86.57;19.67;;;;;;;;;;5092154;28;20570;-71
2022/03/18 05:17:03;;;;;;;80.93;17.00;;;;;;;;;;5092108;28;20549;-69
2022/03/18 05:19:30;;;;;;;77.60;15.27;;;;;;;;;;5091604;28;20448;-69
2022/03/18 05:21:57;;;;;;;75.37;15.40;;;;;;;;;;5091922;28;20941;-68
2022/03/18 05:24:26;;;;;;;80.20;17.40;;;;;;;;;;5092135;28;20466;-70
2022/03/18 05:26:53;;;;;;;77.53;15.87;;;;;;;;;;5092461;28;20480;-69
2022/03/18 05:29:20;;;;;;;79.40;15.40;;;;;;;;;;5091105;28;20459;-69
2022/03/18 05:31:48;;;;;;;80.57;16.23;;;;;;;;;;5092176;28;20535;-69
2022/03/18 05:34:16;;;;;;;76.93;15.50;;;;;;;;;;5092097;28;20567;-69
2022/03/18 05:36:43;;;;;;;85.47;18.57;;;;;;;;;;5092034;28;20475;-70
2022/03/18 05:39:11;;;;;;;83.10;17.53;;;;;;;;;;5091243;28;20453;-68
2022/03/18 05:41:38;;;;;;;80.07;15.93;;;;;;;;;;5092177;28;20814;-69
2022/03/18 05:44:06;;;;;;;79.18;16.15;;;;;;;;;;5091928;28;20456;-69
2022/03/18 05:46:33;;;;;;;79.30;16.00;;;;;;;;;;5092081;28;20225;-69
2022/03/18 05:49:01;;;;;;;81.63;17.90;;;;;;;;;;5091155;28;20483;-69
2022/03/18 05:51:29;;;;;;;78.10;16.13;;;;;;;;;;5091869;28;20965;-69
2022/03/18 05:53:56;;;;;;;85.03;17.50;;;;;;;;;;5091937;28;20858;-69
2022/03/18 05:59:08;;;;;;;77.77;16.20;;;;;;;;;;5091235;28;20448;-69
2022/03/18 06:01:38;;;;;;;79.07;17.60;;;;;;;;;;5091617;28;20554;-71
2022/03/18 06:04:07;;;;;;;80.47;17.40;;;;;;;;;;5092032;28;20448;-69
2022/03/18 06:06:34;;;;;;;77.20;16.50;;;;;;;;;;5091899;28;20471;-70
2022/03/18 06:11:52;;;;;;;81.80;16.87;;;;;;;;;;5091673;28;20956;-68
2022/03/18 06:14:20;;;;;;;82.87;16.00;;;;;;;;;;5091409;28;20980;-68
2022/03/18 06:16:48;;;;;;;78.87;16.77;;;;;;;;;;5091537;28;20473;-68
2022/03/18 06:19:17;;;;;;;81.90;17.80;;;;;;;;;;5090949;28;20457;-68
2022/03/18 06:21:44;;;;;;;82.97;17.73;;;;;;;;;;5091491;28;20541;-69
2022/03/18 06:24:12;;;;;;;80.03;17.00;;;;;;;;;;5091355;28;20945;-68
2022/03/18 06:26:39;;;;;;;80.90;17.57;;;;;;;;;;5091261;28;20473;-68
2022/03/18 06:29:07;;;;;;;80.33;16.80;;;;;;;;;;5090848;28;20443;-68
2022/03/18 06:31:34;;;;;;;78.23;16.50;;;;;;;;;;5091817;28;20454;-68
2022/03/18 06:34:01;;;;;;;85.17;18.80;;;;;;;;;;5091372;28;20489;-68
2022/03/18 06:36:30;;;;;;;82.43;18.73;;;;;;;;;;5091396;28;20471;-69
2022/03/18 06:38:57;;;;;;;85.27;19.63;;;;;;;;;;5090548;28;20536;-68
2022/03/18 06:41:25;;;;;;;83.07;19.07;;;;;;;;;;5092702;28;20822;-68
2022/03/18 06:43:52;;;;;;;81.77;18.30;;;;;;;;;;5095003;28;21025;-68
2022/03/18 06:46:19;;;;;;;81.87;19.27;;;;;;;;;;5095449;28;20468;-69
2022/03/18 06:48:47;;;;;;;84.83;19.80;;;;;;;;;;5094269;28;20957;-71
2022/03/18 06:51:14;;;;;;;89.90;20.27;;;;;;;;;;5094808;28;20454;-68
2022/03/18 06:53:42;;;;;;;86.37;19.87;;;;;;;;;;5094709;28;20567;-70
2022/03/18 06:56:12;;;;;;;83.80;19.23;;;;;;;;;;5094674;28;20992;-68
2022/03/18 06:58:39;;;;;;;88.90;20.77;;;;;;;;;;5094175;28;20535;-70
2022/03/18 07:01:07;;;;;;;86.40;20.23;;;;;;;;;;5094725;28;20823;-69
2022/03/18 07:03:34;;;;;;;87.23;20.03;;;;;;;;;;5094693;28;20491;-69
2022/03/18 07:06:01;;;;;;;90.17;23.07;;;;;;;;;;5094488;28;20473;-68
2022/03/18 07:08:28;;;;;;;87.60;20.60;;;;;;;;;;5094058;28;20938;-68
2022/03/18 07:10:56;;;;;;;85.10;19.27;;;;;;;;;;5094484;28;21032;-71
2022/03/18 07:13:24;;;;;;;82.53;18.30;;;;;;;;;;5094464;28;20448;-69
2022/03/18 07:15:51;;;;;;;87.00;20.70;;;;;;;;;;5094510;28;20475;-68
2022/03/18 07:18:17;;;;;;;90.00;20.57;;;;;;;;;;5093645;28;20980;-69
2022/03/18 07:20:44;;;;;;;84.93;19.83;;;;;;;;;;5094212;28;20487;-68
2022/03/18 07:23:12;;;;;;;87.83;21.17;;;;;;;;;;5094404;28;20445;-71
2022/03/18 07:25:40;;;;;;;92.67;22.93;;;;;;;;;;5094344;28;20452;-71
2022/03/18 07:28:09;;;;;;;88.43;21.83;;;;;;;;;;5093767;28;20448;-68
2022/03/18 07:30:37;;;;;;;90.50;23.00;;;;;;;;;;5094164;28;20513;-69
2022/03/18 07:33:04;;;;;;;89.20;21.53;;;;;;;;;;5093926;28;20538;-69
2022/03/18 07:35:32;;;;;;;90.80;21.50;;;;;;;;;;5093900;28;21083;-68
2022/03/18 07:37:59;;;;;;;89.47;21.97;;;;;;;;;;5093506;28;20491;-69
2022/03/18 07:40:26;;;;;;;93.33;21.37;;;;;;;;;;5094053;28;20535;-69
2022/03/18 07:42:54;;;;;;;90.80;23.10;;;;;;;;;;5093984;28;20451;-68
2022/03/18 07:45:26;;;;;;;93.00;22.73;;;;;;;;;;5094101;28;20537;-68
2022/03/18 07:47:53;;;;;;;89.97;22.77;;;;;;;;;;5093114;28;20930;-68
2022/03/18 07:50:20;;;;;;;92.63;23.67;;;;;;;;;;5093981;28;20445;-72
2022/03/18 07:52:49;;;;;;;94.67;22.13;;;;;;;;;;5093444;28;20874;-69
2022/03/18 07:55:16;;;;;;;89.23;21.60;;;;;;;;;;5093908;28;20482;-69
2022/03/18 07:57:43;;;;;;;95.13;25.70;;;;;;;;;;5092896;28;20466;-69
2022/03/18 08:00:13;;;;;;;86.87;22.50;;;;;;;;;;5093444;28;20449;-69
2022/03/18 08:02:42;;;;;;;93.13;23.33;;;;;;;;;;5093964;28;20549;-68
2022/03/18 08:05:09;;;;;;;93.30;23.47;;;;;;;;;;5093471;28;20942;-69
2022/03/18 08:07:37;;;;;;;88.13;23.20;;;;;;;;;;5092770;28;20475;-71
2022/03/18 08:10:05;;;;;;;93.37;23.07;;;;;;;;;;5093354;28;20541;-68
2022/03/18 08:12:32;;;;;;;90.03;22.07;;;;;;;;;;5093271;28;20529;-69
2022/03/18 08:15:00;;;;;;;91.87;24.60;;;;;;;;;;5093390;28;20569;-68
2022/03/18 08:17:28;;;;;;;88.90;22.13;;;;;;;;;;5092483;28;21093;-68
2022/03/18 08:19:56;;;;;;;87.67;21.67;;;;;;;;;;5093370;28;20866;-68
2022/03/18 08:22:24;;;;;;;94.47;23.30;;;;;;;;;;5093206;28;20541;-69
2022/03/18 08:24:52;;;;;;;84.87;20.90;;;;;;;;;;5093048;28;20439;-66
2022/03/18 08:27:19;;;;;;;87.13;22.60;;;;;;;;;;5092119;28;20470;-66
2022/03/18 08:29:46;;;;;;;86.70;22.57;;;;;;;;;;5092952;28;20450;-66
2022/03/18 08:32:14;;;;;;;90.57;21.40;;;;;;;;;;5092971;28;20453;-70
2022/03/18 08:34:41;;;;;;;85.40;21.17;;;;;;;;;;5092868;28;20577;-66
2022/03/18 08:37:10;;;;;;;88.80;21.30;;;;;;;;;;5092459;28;20480;-66
2022/03/18 08:39:38;;;;;;;87.53;20.43;;;;;;;;;;5092755;28;20445;-66
2022/03/18 08:42:05;;;;;;;82.00;20.20;;;;;;;;;;5100669;28;20957;-67
2022/03/18 08:44:33;;;;;;;85.80;19.83;;;;;;;;;;5111868;28;20452;-67
2022/03/18 08:47:00;;;;;;;82.37;18.90;;;;;;;;;;5113143;28;20483;-66
2022/03/18 08:49:27;;;;;;;83.77;18.30;;;;;;;;;;5109639;28;20459;-66
2022/03/18 08:51:55;;;;;;;88.17;18.23;;;;;;;;;;5112851;28;20445;-66
2022/03/18 08:54:24;;;;;;;85.00;19.53;;;;;;;;;;5112534;27;20477;-67
2022/03/18 08:56:51;;;;;;;81.37;19.20;;;;;;;;;;5112617;28;20549;-66
2022/03/18 08:59:20;;;;;;;84.00;20.00;;;;;;;;;;5112222;28;20723;-69
2022/03/18 09:01:47;;;;;;;78.50;17.57;;;;;;;;;;5112887;28;20449;-67
2022/03/18 09:04:14;;;;;;;84.57;18.23;;;;;;;;;;5112171;28;20952;-70
2022/03/18 09:06:41;;;;;;;81.40;17.17;;;;;;;;;;5112495;28;20469;-65
2022/03/18 09:09:09;;;;;;;82.20;18.67;;;;;;;;;;5111180;28;20528;-68
2022/03/18 09:11:37;;;;;;;82.17;19.07;;;;;;;;;;5112623;28;20445;-67
2022/03/18 09:14:04;;;;;;;81.50;16.30;;;;;;;;;;5111228;28;20532;-69
2022/03/18 09:16:36;;;;;;;82.27;19.00;;;;;;;;;;5108912;28;20469;-66
2022/03/18 09:19:03;;;;;;;82.30;17.93;;;;;;;;;;5111771;28;20968;-67
2022/03/18 09:21:30;;;;;;;83.53;16.30;;;;;;;;;;5109172;28;20459;-66
2022/03/18 09:23:58;;;;;;;82.60;17.53;;;;;;;;;;5112450;28;20451;-66
2022/03/18 09:26:25;;;;;;;79.00;17.90;;;;;;;;;;5112287;28;21015;-68
2022/03/18 09:28:53;;;;;;;83.10;17.93;;;;;;;;;;5111903;28;20832;-67
2022/03/18 09:31:21;;;;;;;83.30;18.33;;;;;;;;;;5112250;28;20441;-66
2022/03/18 09:33:48;;;;;;;91.10;19.73;;;;;;;;;;5112218;28;20877;-67
2022/03/18 09:36:18;;;;;;;85.40;19.40;;;;;;;;;;5111795;28;20511;-69
2022/03/18 09:38:46;;;;;;;85.50;18.17;;;;;;;;;;5111730;28;20466;-68
2022/03/18 09:41:13;;;;;;;83.57;19.50;;;;;;;;;;5112234;28;20441;-70
2022/03/18 09:43:41;;;;;;;83.47;17.47;;;;;;;;;;5112052;28;20467;-67
2022/03/18 09:46:11;;;;;;;78.73;17.00;;;;;;;;;;5112050;28;20880;-66
2022/03/18 09:48:38;;;;;;;86.87;20.50;;;;;;;;;;5111175;28;20449;-67
2022/03/18 09:51:06;;;;;;;79.70;17.40;;;;;;;;;;5111320;28;20455;-67
2022/03/18 09:53:34;;;;;;;81.50;18.13;;;;;;;;;;5100830;28;20450;-67
2022/03/18 09:56:01;;;;;;;82.07;18.63;;;;;;;;;;5091398;28;20486;-67
2022/03/18 09:58:28;;;;;;;88.80;18.20;;;;;;;;;;5091025;28;20494;-68
2022/03/18 10:00:57;;;;;;;82.20;17.67;;;;;;;;;;5091341;28;20443;-71
2022/03/18 10:03:36;;;;;;;80.97;18.93;;;;;;;;;;5091582;28;20449;-67
2022/03/18 10:06:04;;;;;;;82.17;18.80;;;;;;;;;;5091670;28;20473;-68
2022/03/18 10:08:47;;;;;;;81.30;17.63;;;;;;;;;;5091142;28;20452;-68
2022/03/18 10:11:15;;;;;;;84.07;18.57;;;;;;;;;;5091318;28;20446;-68
2022/03/18 10:13:51;;;;;;;76.90;17.07;;;;;;;;;;5091316;28;20540;-69
2022/03/18 10:16:23;;;;;;;76.97;17.37;;;;;;;;;;5094278;28;20538;-68
2022/03/18 10:18:52;;;;;;;79.97;18.50;;;;;;;;;;5094970;28;20454;-68
2022/03/18 10:21:19;;;;;;;79.10;18.03;;;;;;;;;;5095627;28;20442;-68
2022/03/18 10:23:47;;;;;;;82.17;18.90;;;;;;;;;;5094279;28;20943;-71
2022/03/18 10:26:16;;;;;;;85.07;20.57;;;;;;;;;;5111954;28;20476;-69
2022/03/18 10:28:44;;;;;;;86.47;19.37;;;;;;;;;;5115182;28;20957;-68
2022/03/18 10:31:12;;;;;;;80.53;18.47;;;;;;;;;;5115770;28;20462;-68
2022/03/18 10:39:23;;;;;;;78.57;18.90;;;;;;;;;;5114778;28;20513;-70
2022/03/18 10:41:50;;;;;;;81.80;18.90;;;;;;;;;;5115624;28;20452;-68
2022/03/18 10:44:18;;;;;;;79.33;17.83;;;;;;;;;;5115479;28;20458;-68
2022/03/18 10:46:47;;;;;;;80.57;18.73;;;;;;;;;;5115044;28;20554;-68
2022/03/18 10:49:14;;;;;;;81.57;19.43;;;;;;;;;;5114591;28;20833;-69
2022/03/18 10:51:43;;;;;;;77.70;17.37;;;;;;;;;;5115091;28;20452;-69
2022/03/18 10:54:10;;;;;;;82.30;18.70;;;;;;;;;;5115282;28;20470;-68
2022/03/18 10:56:54;;;;;;;78.87;18.90;;;;;;;;;;5114581;28;20991;-70
2022/03/18 10:59:21;;;;;;;76.80;17.57;;;;;;;;;;5114473;28;20447;-70
2022/03/18 11:01:48;;;;;;;82.03;18.23;;;;;;;;;;5115213;27;20447;-70
2022/03/18 11:04:16;;;;;;;75.83;18.27;;;;;;;;;;5115286;28;20455;-70
2022/03/18 11:07:29;;;;;;;80.57;19.87;;;;;;;;;;5115168;28;20470;-69
2022/03/18 11:11:06;;;;;;;81.43;19.67;;;;;;;;;;5114796;28;20447;-70
2022/03/18 11:12:23;;;;;;;78.93;17.93;;;;;;;;;;5114705;28;20455;-72
2022/03/18 11:14:50;;;;;;;84.27;19.07;;;;;;;;;;5114831;28;20954;-71
2022/03/18 11:17:17;;;;;;;81.00;17.97;;;;;;;;;;5114082;28;20493;-70
2022/03/18 11:19:46;;;;;;;79.53;18.40;;;;;;;;;;5114884;28;20447;-71
2022/03/18 11:22:15;;;;;;;81.00;19.53;;;;;;;;;;5114493;28;20448;-71
2022/03/18 11:24:43;;;;;;;79.30;19.20;;;;;;;;;;5114828;28;20488;-70
2022/03/18 11:27:11;;;;;;;79.50;18.60;;;;;;;;;;5112978;27;20750;-74
2022/03/18 11:29:40;;;;;;;77.27;19.07;;;;;;;;;;5114625;28;20557;-69
2022/03/18 11:32:20;;;;;;;78.33;18.30;;;;;;;;;;5114530;28;20476;-68
2022/03/18 11:34:50;;;;;;;79.60;18.80;;;;;;;;;;5114168;28;20495;-70
2022/03/18 11:37:19;;;;;;;83.37;20.10;;;;;;;;;;5113651;28;20479;-70
2022/03/18 11:39:47;;;;;;;80.30;18.57;;;;;;;;;;5114560;28;20452;-72
2022/03/18 11:42:18;;;;;;;77.37;18.60;;;;;;;;;;5114468;28;20607;-73
2022/03/18 11:44:55;;;;;;;81.90;20.13;;;;;;;;;;5114847;28;20449;-70
2022/03/18 11:47:38;;;;;;;82.47;19.63;;;;;;;;;;5112438;28;20514;-72
2022/03/18 11:50:26;;;;;;;84.13;19.80;;;;;;;;;;5094676;28;20863;-68
2022/03/18 11:52:59;;;;;;;82.60;18.50;;;;;;;;;;5093373;28;20458;-68
2022/03/18 11:55:26;;;;;;;79.10;20.63;;;;;;;;;;5093728;28;20477;-70
2022/03/18 11:57:53;;;;;;;82.97;20.40;;;;;;;;;;5092746;28;20479;-70
2022/03/18 12:00:41;;;;;;;78.37;19.03;;;;;;;;;;5093789;28;20452;-70
2022/03/18 12:03:08;;;;;;;80.07;19.60;;;;;;;;;;5093570;28;20445;-70
2022/03/18 12:05:35;;;;;;;82.57;20.53;;;;;;;;;;5093400;28;20444;-71
2022/03/18 12:08:04;;;;;;;81.77;19.80;;;;;;;;;;5092861;28;20537;-71
2022/03/18 12:10:35;;;;;;;83.30;19.87;;;;;;;;;;5093350;28;20990;-71
2022/03/18 12:13:03;;;;;;;79.43;18.53;;;;;;;;;;5093513;28;20443;-72
2022/03/18 12:15:32;;;;;;;78.67;19.37;;;;;;;;;;5092993;28;21051;-71
2022/03/18 12:18:00;;;;;;;78.87;19.33;;;;;;;;;;5092744;28;20456;-71
2022/03/18 12:20:29;;;;;;;81.37;21.40;;;;;;;;;;5097747;28;20447;-70
2022/03/18 12:22:57;;;;;;;79.90;19.90;;;;;;;;;;5113375;28;20512;-70
2022/03/18 12:25:26;;;;;;;82.67;21.87;;;;;;;;;;5113386;28;20449;-71
2022/03/18 12:27:53;;;;;;;79.37;19.87;;;;;;;;;;5112983;28;20523;-71
2022/03/18 12:30:22;;;;;;;83.97;20.40;;;;;;;;;;5112579;28;20463;-70
2022/03/18 12:32:51;;;;;;;81.57;20.63;;;;;;;;;;5113409;28;20452;-71
2022/03/18 12:35:19;;;;;;;79.97;20.27;;;;;;;;;;5112315;28;20444;-71
2022/03/18 12:37:46;;;;;;;77.73;19.80;;;;;;;;;;5112316;27;20462;-71
2022/03/18 12:40:16;;;;;;;79.37;19.03;;;;;;;;;;5111532;28;20445;-71
2022/03/18 12:42:48;;;;;;;81.13;20.20;;;;;;;;;;5112766;28;20448;-69
2022/03/18 12:45:24;;;;;;;80.70;19.50;;;;;;;;;;5113718;28;20445;-70
2022/03/18 12:47:52;;;;;;;82.30;19.40;;;;;;;;;;5112375;28;20453;-71
2022/03/18 12:50:19;;;;;;;80.23;19.43;;;;;;;;;;5111978;27;20536;-69
2022/03/18 12:52:47;;;;;;;76.73;17.70;;;;;;;;;;5108507;28;20468;-71
2022/03/18 12:55:14;;;;;;;80.40;19.87;;;;;;;;;;5112030;28;20448;-68
2022/03/18 12:57:42;;;;;;;76.03;18.20;;;;;;;;;;5112035;28;20548;-71
2022/03/18 13:00:13;;;;;;;77.57;18.20;;;;;;;;;;5112697;28;20441;-71
2022/03/18 13:02:41;;;;;;;75.03;17.43;;;;;;;;;;5112790;28;20452;-73
2022/03/18 13:05:10;;;;;;;78.23;19.33;;;;;;;;;;5112905;28;20822;-69
2022/03/18 13:07:38;;;;;;;76.03;17.60;;;;;;;;;;5112041;28;20473;-68
2022/03/18 13:10:05;;;;;;;78.77;19.20;;;;;;;;;;5112733;28;20540;-69
2022/03/18 13:12:34;;;;;;;75.37;17.03;;;;;;;;;;5112542;28;20452;-69
2022/03/18 13:15:13;;;;;;;75.63;17.30;;;;;;;;;;5112494;28;20481;-68
2022/03/18 13:17:41;;;;;;;75.97;16.20;;;;;;;;;;5112096;28;20462;-69
2022/03/18 13:20:21;;;;;;;76.80;17.43;;;;;;;;;;5112452;28;20453;-69
2022/03/18 13:22:49;;;;;;;79.37;18.00;;;;;;;;;;5112339;28;20525;-68
2022/03/18 13:25:16;;;;;;;75.60;17.00;;;;;;;;;;5091291;28;20454;-69
2022/03/18 13:27:43;;;;;;;78.40;17.37;;;;;;;;;;5091555;28;20872;-71
2022/03/18 13:32:59;;;;;;;73.20;15.80;;;;;;;;;;5092231;28;20982;-71
2022/03/18 13:35:29;;;;;;;77.67;17.73;;;;;;;;;;5091923;28;20493;-71
2022/03/18 13:38:06;;;;;;;78.27;17.63;;;;;;;;;;5091133;28;20451;-71
2022/03/18 13:40:34;;;;;;;76.30;17.53;;;;;;;;;;5091932;28;20484;-72
2022/03/18 13:43:04;;;;;;;76.17;17.70;;;;;;;;;;5091927;28;20453;-71
2022/03/18 13:45:31;;;;;;;76.30;17.57;;;;;;;;;;5092096;28;20482;-70
2022/03/18 13:48:00;;;;;;;74.90;17.70;;;;;;;;;;5091139;28;20530;-70
2022/03/18 13:50:42;;;;;;;77.43;17.87;;;;;;;;;;5091092;28;20885;-70
2022/03/18 13:53:19;;;;;;;77.50;16.53;;;;;;;;;;5091874;28;20458;-70
2022/03/18 13:55:46;;;;;;;77.13;16.23;;;;;;;;;;5089676;28;20498;-70
2022/03/18 13:58:13;;;;;;;77.57;16.73;;;;;;;;;;5091002;28;20537;-70
2022/03/18 14:00:40;;;;;;;74.00;14.87;;;;;;;;;;5091518;28;20538;-71
2022/03/18 14:03:11;;;;;;;76.03;16.97;;;;;;;;;;5091926;28;20442;-70
2022/03/18 14:05:38;;;;;;;75.43;15.93;;;;;;;;;;5091738;28;20472;-72
2022/03/18 14:08:07;;;;;;;78.53;17.40;;;;;;;;;;5091395;28;20452;-69
2022/03/18 14:10:39;;;;;;;74.43;16.10;;;;;;;;;;5091235;28;20478;-71
2022/03/18 14:13:07;;;;;;;78.43;17.53;;;;;;;;;;5090955;28;20453;-69
2022/03/18 14:15:35;;;;;;;75.87;16.40;;;;;;;;;;5091018;28;20947;-69
2022/03/18 14:18:03;;;;;;;73.80;16.40;;;;;;;;;;5090963;28;20576;-70
2022/03/18 14:20:34;;;;;;;76.20;16.20;;;;;;;;;;5091583;28;20448;-70
2022/03/18 14:23:15;;;;;;;73.67;16.17;;;;;;;;;;5091854;28;20450;-70
2022/03/18 14:25:42;;;;;;;74.90;14.43;;;;;;;;;;5090875;28;21007;-70
2022/03/18 14:28:10;;;;;;;76.80;16.03;;;;;;;;;;5089011;28;20508;-70
2022/03/18 14:30:37;;;;;;;74.70;15.77;;;;;;;;;;5091430;28;20455;-72
2022/03/18 14:33:04;;;;;;;78.50;18.77;;;;;;;;;;5091414;28;20458;-69
2022/03/18 14:35:33;;;;;;;79.30;17.53;;;;;;;;;;5091309;28;20452;-72
2022/03/18 14:38:00;;;;;;;78.10;18.03;;;;;;;;;;5090594;28;20498;-71
2022/03/18 14:40:27;;;;;;;81.03;16.93;;;;;;;;;;5091476;28;20541;-69
2022/03/18 14:42:54;;;;;;;76.90;17.47;;;;;;;;;;5090939;28;20946;-69
2022/03/18 14:45:22;;;;;;;79.60;17.83;;;;;;;;;;5091690;28;20446;-70